createdAt,value
2018-12-24T00:00:52.956Z,1012.18
2018-12-24T00:01:52.966Z,1012.16
2018-12-24T00:02:52.980Z,1012.19
2018-12-24T00:03:52.993Z,1012.19
2018-12-24T00:04:53.005Z,1012.16
2018-12-24T00:05:53.019Z,1012.17
2018-12-24T00:06:53.035Z,1012.20
2018-12-24T00:07:53.038Z,1012.21
2018-12-24T00:08:53.062Z,1012.20
2018-12-24T00:09:53.068Z,1012.25
2018-12-24T00:10:53.077Z,1012.31
2018-12-24T00:11:53.084Z,1012.29
2018-12-24T00:12:53.101Z,1012.32
2018-12-24T00:13:53.110Z,1012.29
2018-12-24T00:14:53.140Z,1012.31
2018-12-24T00:15:53.135Z,1012.32
2018-12-24T00:16:53.151Z,1012.30
2018-12-24T00:17:53.169Z,1012.31
2018-12-24T00:18:53.177Z,1012.34
2018-12-24T00:19:53.193Z,1012.44
2018-12-24T00:20:53.212Z,1012.44
2018-12-24T00:21:53.214Z,1012.42
2018-12-24T00:22:53.269Z,1012.47
2018-12-24T00:23:53.234Z,1012.49
2018-12-24T00:24:53.249Z,1012.51
2018-12-24T00:25:53.262Z,1012.51
2018-12-24T00:26:53.273Z,1012.53
2018-12-24T00:27:53.288Z,1012.57
2018-12-24T00:28:53.304Z,1012.58
2018-12-24T00:29:53.307Z,1012.56
2018-12-24T00:30:53.326Z,1012.64
2018-12-24T00:31:53.336Z,1012.62
2018-12-24T00:32:53.347Z,1012.65
2018-12-24T00:33:53.364Z,1012.68
2018-12-24T00:34:53.378Z,1012.69
2018-12-24T00:35:53.391Z,1012.69
2018-12-24T00:36:53.394Z,1012.64
2018-12-24T00:37:53.418Z,1012.66
2018-12-24T00:38:53.427Z,1012.73
2018-12-24T00:39:53.442Z,1012.68
2018-12-24T00:40:53.452Z,1012.69
2018-12-24T00:41:53.460Z,1012.70
2018-12-24T00:42:53.476Z,1012.80
2018-12-24T00:43:53.483Z,1012.85
2018-12-24T00:44:53.516Z,1012.93
2018-12-24T00:45:53.512Z,1012.95
2018-12-24T00:46:53.520Z,1012.97
2018-12-24T00:47:53.538Z,1012.97
2018-12-24T00:48:53.543Z,1012.97
2018-12-24T00:49:53.559Z,1013.07
2018-12-24T00:50:53.572Z,1013.08
2018-12-24T00:51:53.579Z,1013.08
2018-12-24T00:52:53.605Z,1013.11
2018-12-24T00:53:53.610Z,1013.19
2018-12-24T00:54:53.633Z,1013.27
2018-12-24T00:55:53.639Z,1013.28
2018-12-24T00:56:53.646Z,1013.32
2018-12-24T00:57:53.669Z,1013.34
2018-12-24T00:58:53.669Z,1013.41
2018-12-24T00:59:53.686Z,1013.46
2018-12-24T01:00:53.706Z,1013.47
2018-12-24T01:01:53.717Z,1013.46
2018-12-24T01:02:53.740Z,1013.48
2018-12-24T01:03:53.732Z,1013.53
2018-12-24T01:04:53.751Z,1013.54
2018-12-24T01:05:53.764Z,1013.61
2018-12-24T01:06:53.774Z,1013.57
2018-12-24T01:07:53.788Z,1013.63
2018-12-24T01:08:53.801Z,1013.58
2018-12-24T01:09:53.807Z,1013.66
2018-12-24T01:10:53.824Z,1013.65
2018-12-24T01:11:53.840Z,1013.66
2018-12-24T01:12:53.847Z,1013.72
2018-12-24T01:13:53.862Z,1013.75
2018-12-24T01:14:53.872Z,1013.77
2018-12-24T01:15:53.883Z,1013.77
2018-12-24T01:16:53.893Z,1013.81
2018-12-24T01:17:53.913Z,1013.87
2018-12-24T01:18:53.926Z,1013.92
2018-12-24T01:19:53.934Z,1013.96
2018-12-24T01:20:53.950Z,1013.95
2018-12-24T01:21:53.959Z,1013.97
2018-12-24T01:22:53.970Z,1014.00
2018-12-24T01:23:53.980Z,1013.99
2018-12-24T01:24:54.011Z,1014.04
2018-12-24T01:25:54.013Z,1014.16
2018-12-24T01:26:54.019Z,1014.15
2018-12-24T01:27:54.031Z,1014.13
2018-12-24T01:28:54.054Z,1014.18
2018-12-24T01:29:54.060Z,1014.17
2018-12-24T01:30:54.077Z,1014.23
2018-12-24T01:31:54.089Z,1014.25
2018-12-24T01:32:54.096Z,1014.34
2018-12-24T01:33:54.115Z,1014.29
2018-12-24T01:34:54.130Z,1014.34
2018-12-24T01:35:54.134Z,1014.37
2018-12-24T01:36:54.152Z,1014.38
2018-12-24T01:37:54.157Z,1014.45
2018-12-24T01:38:54.173Z,1014.47
2018-12-24T01:39:54.197Z,1014.47
2018-12-24T01:40:54.202Z,1014.50
2018-12-24T01:41:54.210Z,1014.52
2018-12-24T01:42:54.225Z,1014.55
2018-12-24T01:43:54.236Z,1014.56
2018-12-24T01:44:54.246Z,1014.60
2018-12-24T01:45:54.261Z,1014.60
2018-12-24T01:46:54.301Z,1014.62
2018-12-24T01:47:54.286Z,1014.63
2018-12-24T01:48:54.303Z,1014.62
2018-12-24T01:49:54.316Z,1014.68
2018-12-24T01:50:54.330Z,1014.68
2018-12-24T01:51:54.339Z,1014.63
2018-12-24T01:52:54.349Z,1014.66
2018-12-24T01:53:54.386Z,1014.70
2018-12-24T01:54:54.386Z,1014.70
2018-12-24T01:55:54.390Z,1014.72
2018-12-24T01:56:54.406Z,1014.66
2018-12-24T01:57:54.413Z,1014.71
2018-12-24T01:58:54.432Z,1014.70
2018-12-24T01:59:54.436Z,1014.76
2018-12-24T02:00:54.451Z,1014.77
2018-12-24T02:01:54.466Z,1014.77
2018-12-24T02:02:54.481Z,1014.79
2018-12-24T02:03:54.488Z,1014.80
2018-12-24T02:04:54.501Z,1014.83
2018-12-24T02:05:54.516Z,1014.84
2018-12-24T02:06:54.532Z,1014.87
2018-12-24T02:07:54.545Z,1014.92
2018-12-24T02:08:54.554Z,1014.93
2018-12-24T02:09:54.569Z,1014.96
2018-12-24T02:10:54.579Z,1014.98
2018-12-24T02:11:54.589Z,1015.03
2018-12-24T02:12:54.606Z,1015.03
2018-12-24T02:13:54.619Z,1015.02
2018-12-24T02:14:54.626Z,1015.06
2018-12-24T02:15:54.639Z,1015.05
2018-12-24T02:16:54.649Z,1015.07
2018-12-24T02:17:54.669Z,1015.13
2018-12-24T02:18:54.676Z,1015.13
2018-12-24T02:19:54.695Z,1015.16
2018-12-24T02:20:54.713Z,1015.15
2018-12-24T02:21:54.712Z,1015.15
2018-12-24T02:22:54.727Z,1015.15
2018-12-24T02:23:54.741Z,1015.21
2018-12-24T02:24:54.765Z,1015.19
2018-12-24T02:25:54.766Z,1015.25
2018-12-24T02:26:54.779Z,1015.28
2018-12-24T02:27:54.791Z,1015.24
2018-12-24T02:28:54.817Z,1015.27
2018-12-24T02:29:54.817Z,1015.21
2018-12-24T02:30:54.834Z,1015.31
2018-12-24T02:31:54.842Z,1015.32
2018-12-24T02:32:54.854Z,1015.36
2018-12-24T02:33:54.866Z,1015.34
2018-12-24T02:34:54.877Z,1015.34
2018-12-24T02:35:54.892Z,1015.36
2018-12-24T02:36:54.909Z,1015.39
2018-12-24T02:37:54.918Z,1015.42
2018-12-24T02:38:54.932Z,1015.46
2018-12-24T02:39:54.941Z,1015.46
2018-12-24T02:40:54.959Z,1015.44
2018-12-24T02:41:54.973Z,1015.42
2018-12-24T02:42:54.985Z,1015.44
2018-12-24T02:43:55.001Z,1015.40
2018-12-24T02:44:55.025Z,1015.46
2018-12-24T02:45:55.022Z,1015.44
2018-12-24T02:46:55.039Z,1015.47
2018-12-24T02:47:55.051Z,1015.53
2018-12-24T02:48:55.063Z,1015.51
2018-12-24T02:49:55.072Z,1015.53
2018-12-24T02:50:55.080Z,1015.59
2018-12-24T02:51:55.097Z,1015.55
2018-12-24T02:52:55.116Z,1015.67
2018-12-24T02:53:55.133Z,1015.70
2018-12-24T02:54:55.135Z,1015.69
2018-12-24T02:55:55.145Z,1015.70
2018-12-24T02:56:55.161Z,1015.70
2018-12-24T02:57:55.180Z,1015.73
2018-12-24T02:58:55.194Z,1015.75
2018-12-24T02:59:55.200Z,1015.82
2018-12-24T03:00:55.207Z,1015.80
2018-12-24T03:01:55.224Z,1015.81
2018-12-24T03:02:55.241Z,1015.77
2018-12-24T03:03:55.250Z,1015.79
2018-12-24T03:04:55.260Z,1015.80
2018-12-24T03:05:55.272Z,1015.82
2018-12-24T03:06:55.288Z,1015.80
2018-12-24T03:07:55.305Z,1015.79
2018-12-24T03:08:55.312Z,1015.81
2018-12-24T03:39:10.430Z,1016.36
2018-12-24T03:40:10.406Z,1016.32
2018-12-24T03:42:02.318Z,1016.35
2018-12-24T03:43:12.080Z,1016.40
2018-12-24T03:44:54.205Z,1016.46
2018-12-24T03:45:54.203Z,1016.47
2018-12-24T03:47:46.124Z,1016.48
2018-12-24T03:48:46.107Z,1016.47
2018-12-24T03:50:38.029Z,1016.51
2018-12-24T03:51:38.022Z,1016.55
2018-12-24T03:53:29.927Z,1016.70
2018-12-24T03:54:29.935Z,1016.69
2018-12-24T03:56:22.360Z,1016.70
2018-12-24T03:57:22.341Z,1016.78
2018-12-24T03:59:14.240Z,1016.84
2018-12-24T04:00:14.245Z,1016.82
2018-12-24T04:02:06.170Z,1016.86
2018-12-24T04:03:06.153Z,1016.86
2018-12-24T04:04:58.060Z,1016.93
2018-12-24T04:05:58.074Z,1016.97
2018-12-24T04:07:50.493Z,1016.88
2018-12-24T04:08:50.481Z,1016.88
2018-12-24T04:10:42.393Z,1016.92
2018-12-24T04:11:42.391Z,1016.98
2018-12-24T04:13:34.311Z,1017.01
2018-12-24T04:14:34.302Z,1017.02
2018-12-24T04:16:26.245Z,1017.06
2018-12-24T04:17:26.221Z,1017.05
2018-12-24T04:19:18.151Z,1017.11
2018-12-24T04:20:18.150Z,1017.10
2018-12-24T04:22:10.356Z,1017.13
2018-12-24T04:23:10.075Z,1017.16
2018-12-24T04:25:01.972Z,1017.19
2018-12-24T04:26:01.972Z,1017.23
2018-12-24T04:27:53.912Z,1017.23
2018-12-24T04:28:53.885Z,1017.24
2018-12-24T04:30:45.800Z,1017.30
2018-12-24T04:31:45.797Z,1017.30
2018-12-24T04:33:37.731Z,1017.35
2018-12-24T04:34:37.736Z,1017.44
2018-12-24T04:36:29.651Z,1017.52
2018-12-24T04:37:29.654Z,1017.51
2018-12-24T04:39:21.589Z,1017.60
2018-12-24T04:40:21.572Z,1017.67
2018-12-24T04:41:21.587Z,1017.69
2018-12-24T04:42:21.603Z,1017.64
2018-12-24T04:43:21.610Z,1017.71
2018-12-24T04:44:21.625Z,1017.76
2018-12-24T04:45:21.635Z,1017.75
2018-12-24T04:46:21.651Z,1017.75
2018-12-24T04:47:21.664Z,1017.76
2018-12-24T04:48:21.674Z,1017.74
2018-12-24T04:49:21.691Z,1017.82
2018-12-24T04:50:21.713Z,1017.86
2018-12-24T04:51:21.711Z,1017.89
2018-12-24T04:52:21.726Z,1017.88
2018-12-24T04:53:21.734Z,1017.92
2018-12-24T04:54:21.752Z,1017.91
2018-12-24T04:55:21.768Z,1017.89
2018-12-24T04:56:21.776Z,1017.95
2018-12-24T04:57:21.788Z,1017.97
2018-12-24T04:58:21.803Z,1018.01
2018-12-24T04:59:21.822Z,1018.07
2018-12-24T05:00:21.829Z,1018.07
2018-12-24T05:01:21.839Z,1018.09
2018-12-24T05:02:21.858Z,1018.05
2018-12-24T05:03:21.871Z,1018.07
2018-12-24T05:04:21.882Z,1018.09
2018-12-24T05:05:21.890Z,1018.11
2018-12-24T05:06:21.912Z,1018.16
2018-12-24T05:07:21.917Z,1018.18
2018-12-24T05:08:21.933Z,1018.20
2018-12-24T05:09:21.956Z,1018.23
2018-12-24T05:10:21.954Z,1018.28
2018-12-24T05:11:21.982Z,1018.33
2018-12-24T05:12:21.989Z,1018.33
2018-12-24T05:13:21.996Z,1018.37
2018-12-24T05:14:22.008Z,1018.38
2018-12-24T05:15:22.020Z,1018.44
2018-12-24T05:16:22.036Z,1018.46
2018-12-24T05:17:22.047Z,1018.47
2018-12-24T05:18:22.057Z,1018.51
2018-12-24T05:19:22.071Z,1018.59
2018-12-24T05:20:22.090Z,1018.65
2018-12-24T05:21:22.100Z,1018.64
2018-12-24T05:22:22.112Z,1018.68
2018-12-24T05:23:22.125Z,1018.68
2018-12-24T05:24:22.142Z,1018.69
2018-12-24T05:25:22.162Z,1018.66
2018-12-24T05:26:22.167Z,1018.72
2018-12-24T05:27:22.177Z,1018.75
2018-12-24T05:28:22.190Z,1018.81
2018-12-24T05:29:22.205Z,1018.75
2018-12-24T05:30:22.217Z,1018.73
2018-12-24T05:31:22.229Z,1018.74
2018-12-24T05:32:22.243Z,1018.76
2018-12-24T05:33:22.256Z,1018.76
2018-12-24T05:34:22.265Z,1018.88
2018-12-24T05:35:22.278Z,1018.87
2018-12-24T05:36:22.296Z,1018.85
2018-12-24T05:37:22.303Z,1018.91
2018-12-24T05:38:22.318Z,1018.92
2018-12-24T05:39:22.330Z,1018.92
2018-12-24T05:40:22.346Z,1018.93
2018-12-24T05:41:22.360Z,1018.94
2018-12-24T05:42:22.376Z,1018.98
2018-12-24T05:43:22.388Z,1019.01
2018-12-24T05:44:22.397Z,1019.03
2018-12-24T05:45:22.412Z,1019.03
2018-12-24T05:46:22.423Z,1019.08
2018-12-24T05:47:22.451Z,1019.12
2018-12-24T05:48:22.454Z,1019.17
2018-12-24T05:49:22.466Z,1019.18
2018-12-24T05:50:22.475Z,1019.17
2018-12-24T05:51:22.488Z,1019.21
2018-12-24T05:52:22.506Z,1019.24
2018-12-24T05:53:22.515Z,1019.23
2018-12-24T05:54:22.524Z,1019.20
2018-12-24T05:55:22.539Z,1019.27
2018-12-24T05:56:22.554Z,1019.30
2018-12-24T05:57:22.568Z,1019.40
2018-12-24T05:58:22.581Z,1019.39
2018-12-24T05:59:22.593Z,1019.45
2018-12-24T06:00:22.615Z,1019.55
2018-12-24T06:01:22.627Z,1019.58
2018-12-24T06:02:22.637Z,1019.60
2018-12-24T06:03:22.642Z,1019.68
2018-12-24T06:04:22.654Z,1019.67
2018-12-24T06:05:22.671Z,1019.74
2018-12-24T06:06:22.678Z,1019.75
2018-12-24T06:07:22.695Z,1019.79
2018-12-24T06:08:22.710Z,1019.80
2018-12-24T06:09:22.721Z,1019.92
2018-12-24T06:10:22.734Z,1019.95
2018-12-24T06:11:22.748Z,1019.97
2018-12-24T06:12:22.761Z,1019.96
2018-12-24T06:13:22.775Z,1020.01
2018-12-24T06:14:22.787Z,1020.01
2018-12-24T06:15:22.799Z,1020.05
2018-12-24T06:16:22.811Z,1020.08
2018-12-24T06:17:22.822Z,1020.13
2018-12-24T06:18:22.838Z,1020.09
2018-12-24T06:19:22.849Z,1020.08
2018-12-24T06:20:22.864Z,1020.18
2018-12-24T06:21:22.878Z,1020.20
2018-12-24T06:22:22.901Z,1020.17
2018-12-24T06:23:22.900Z,1020.23
2018-12-24T06:24:22.928Z,1020.26
2018-12-24T06:25:22.931Z,1020.28
2018-12-24T06:26:22.941Z,1020.26
2018-12-24T06:27:22.955Z,1020.28
2018-12-24T06:28:22.967Z,1020.29
2018-12-24T06:29:22.985Z,1020.35
2018-12-24T06:30:22.997Z,1020.34
2018-12-24T06:31:23.005Z,1020.39
2018-12-24T06:32:23.021Z,1020.44
2018-12-24T06:33:23.034Z,1020.45
2018-12-24T06:34:23.042Z,1020.50
2018-12-24T06:35:23.060Z,1020.53
2018-12-24T06:36:23.074Z,1020.50
2018-12-24T06:37:23.086Z,1020.59
2018-12-24T06:38:23.099Z,1020.61
2018-12-24T06:39:23.114Z,1020.60
2018-12-24T06:40:23.129Z,1020.62
2018-12-24T06:41:23.138Z,1020.63
2018-12-24T06:42:23.148Z,1020.67
2018-12-24T06:43:23.161Z,1020.72
2018-12-24T06:44:23.178Z,1020.74
2018-12-24T06:45:23.185Z,1020.76
2018-12-24T06:46:23.205Z,1020.75
2018-12-24T06:47:23.219Z,1020.75
2018-12-24T06:48:23.229Z,1020.79
2018-12-24T06:49:23.243Z,1020.76
2018-12-24T06:50:23.254Z,1020.78
2018-12-24T06:51:23.267Z,1020.79
2018-12-24T06:52:23.283Z,1020.81
2018-12-24T06:53:23.303Z,1020.81
2018-12-24T06:54:23.304Z,1020.83
2018-12-24T06:55:23.320Z,1020.81
2018-12-24T06:56:23.338Z,1020.85
2018-12-24T06:57:23.346Z,1020.91
2018-12-24T06:58:23.358Z,1020.87
2018-12-24T06:59:23.370Z,1020.87
2018-12-24T07:00:23.385Z,1020.87
2018-12-24T07:01:23.399Z,1020.94
2018-12-24T07:02:23.409Z,1020.95
2018-12-24T07:03:23.423Z,1020.91
2018-12-24T07:04:23.434Z,1020.88
2018-12-24T07:05:23.502Z,1020.89
2018-12-24T07:06:23.458Z,1020.89
2018-12-24T07:07:23.474Z,1020.90
2018-12-24T07:08:23.486Z,1020.91
2018-12-24T07:09:23.501Z,1020.92
2018-12-24T07:10:23.516Z,1020.92
2018-12-24T07:11:23.536Z,1020.89
2018-12-24T07:12:23.543Z,1020.92
2018-12-24T07:13:23.555Z,1020.98
2018-12-24T07:14:23.565Z,1021.04
2018-12-24T07:15:23.574Z,1021.07
2018-12-24T07:16:23.591Z,1021.10
2018-12-24T07:17:23.606Z,1021.08
2018-12-24T07:18:23.619Z,1021.17
2018-12-24T07:19:23.634Z,1021.14
2018-12-24T07:20:23.643Z,1021.20
2018-12-24T07:21:23.655Z,1021.22
2018-12-24T07:22:23.666Z,1021.28
2018-12-24T07:23:23.680Z,1021.23
2018-12-24T07:24:23.694Z,1021.25
2018-12-24T07:25:23.709Z,1021.24
2018-12-24T07:26:23.726Z,1021.33
2018-12-24T07:27:23.734Z,1021.33
2018-12-24T07:28:23.751Z,1021.37
2018-12-24T07:29:23.758Z,1021.38
2018-12-24T07:30:23.775Z,1021.39
2018-12-24T07:31:23.817Z,1021.44
2018-12-24T07:32:23.797Z,1021.46
2018-12-24T07:33:23.811Z,1021.51
2018-12-24T07:34:32.125Z,1021.51
2018-12-24T07:35:23.837Z,1021.51
2018-12-24T07:36:23.852Z,1021.49
2018-12-24T07:37:23.906Z,1021.53
2018-12-24T07:38:23.872Z,1021.53
2018-12-24T07:39:23.889Z,1021.53
2018-12-24T07:40:23.902Z,1021.57
2018-12-24T07:41:23.938Z,1021.57
2018-12-24T07:42:23.926Z,1021.51
2018-12-24T07:43:23.943Z,1021.58
2018-12-24T07:44:24.545Z,1021.60
2018-12-24T07:45:23.967Z,1021.62
2018-12-24T07:46:23.975Z,1021.60
2018-12-24T07:47:23.989Z,1021.70
2018-12-24T07:48:24.002Z,1021.74
2018-12-24T07:49:24.018Z,1021.79
2018-12-24T07:50:24.029Z,1021.82
2018-12-24T07:51:24.039Z,1021.81
2018-12-24T07:52:24.056Z,1021.78
2018-12-24T07:53:24.068Z,1021.78
2018-12-24T07:54:24.081Z,1021.83
2018-12-24T07:55:24.092Z,1021.86
2018-12-24T07:56:24.108Z,1021.88
2018-12-24T07:57:24.119Z,1021.84
2018-12-24T07:58:24.133Z,1021.82
2018-12-24T07:59:24.150Z,1021.80
2018-12-24T08:00:24.158Z,1021.84
2018-12-24T08:01:24.174Z,1021.85
2018-12-24T08:02:24.186Z,1021.88
2018-12-24T08:03:24.198Z,1021.89
2018-12-24T08:04:24.210Z,1021.93
2018-12-24T08:05:24.224Z,1021.96
2018-12-24T08:06:24.238Z,1021.99
2018-12-24T08:07:24.250Z,1021.98
2018-12-24T08:08:24.274Z,1022.01
2018-12-24T08:09:24.279Z,1022.01
2018-12-24T08:10:24.288Z,1022.02
2018-12-24T08:11:24.302Z,1022.05
2018-12-24T08:12:24.314Z,1022.06
2018-12-24T08:13:24.329Z,1022.12
2018-12-24T08:14:32.761Z,1022.17
2018-12-24T08:15:24.353Z,1022.14
2018-12-24T08:16:24.371Z,1022.15
2018-12-24T08:17:24.381Z,1022.19
2018-12-24T08:18:24.395Z,1022.16
2018-12-24T08:19:24.409Z,1022.21
2018-12-24T08:20:24.427Z,1022.23
2018-12-24T08:21:24.429Z,1022.26
2018-12-24T08:22:24.444Z,1022.26
2018-12-24T08:23:24.459Z,1022.28
2018-12-24T08:24:24.479Z,1022.30
2018-12-24T08:25:24.496Z,1022.32
2018-12-24T08:26:24.494Z,1022.28
2018-12-24T08:27:24.515Z,1022.40
2018-12-24T08:28:24.529Z,1022.41
2018-12-24T08:29:24.537Z,1022.45
2018-12-24T08:30:24.546Z,1022.52
2018-12-24T08:31:24.568Z,1022.52
2018-12-24T08:32:24.575Z,1022.53
2018-12-24T08:33:24.589Z,1022.60
2018-12-24T08:34:24.601Z,1022.55
2018-12-24T08:35:24.611Z,1022.60
2018-12-24T08:36:24.633Z,1022.67
2018-12-24T08:37:24.640Z,1022.70
2018-12-24T08:38:24.653Z,1022.66
2018-12-24T08:39:24.665Z,1022.69
2018-12-24T08:40:24.675Z,1022.69
2018-12-24T08:41:24.700Z,1022.67
2018-12-24T08:42:24.788Z,1022.66
2018-12-24T08:43:24.723Z,1022.64
2018-12-24T08:44:24.732Z,1022.70
2018-12-24T08:45:24.744Z,1022.72
2018-12-24T08:46:24.767Z,1022.79
2018-12-24T08:47:24.791Z,1022.77
2018-12-24T08:48:24.797Z,1022.80
2018-12-24T08:49:24.797Z,1022.83
2018-12-24T08:50:24.810Z,1022.90
2018-12-24T08:51:24.828Z,1022.90
2018-12-24T08:52:24.839Z,1023.00
2018-12-24T08:53:24.854Z,1023.00
2018-12-24T08:54:24.866Z,1023.04
2018-12-24T08:55:24.876Z,1023.07
2018-12-24T08:56:24.895Z,1023.01
2018-12-24T08:57:24.900Z,1023.12
2018-12-24T08:58:24.914Z,1023.13
2018-12-24T08:59:24.929Z,1023.09
2018-12-24T09:00:24.944Z,1023.19
2018-12-24T09:01:24.960Z,1023.14
2018-12-24T09:02:24.966Z,1023.16
2018-12-24T09:03:24.985Z,1023.24
2018-12-24T09:04:25.005Z,1023.28
2018-12-24T09:05:25.013Z,1023.35
2018-12-24T09:06:25.025Z,1023.38
2018-12-24T09:07:25.036Z,1023.40
2018-12-24T09:08:25.044Z,1023.41
2018-12-24T09:09:25.065Z,1023.39
2018-12-24T09:10:25.085Z,1023.41
2018-12-24T09:11:25.095Z,1023.45
2018-12-24T09:12:25.116Z,1023.49
2018-12-24T09:13:25.113Z,1023.52
2018-12-24T09:14:25.128Z,1023.57
2018-12-24T09:15:25.159Z,1023.59
2018-12-24T09:16:25.159Z,1023.60
2018-12-24T09:17:25.168Z,1023.70
2018-12-24T09:18:25.233Z,1023.70
2018-12-24T09:19:25.197Z,1023.73
2018-12-24T09:20:25.219Z,1023.73
2018-12-24T09:21:25.226Z,1023.78
2018-12-24T09:22:25.303Z,1023.81
2018-12-24T09:23:25.248Z,1023.81
2018-12-24T09:24:25.259Z,1023.87
2018-12-24T09:25:25.276Z,1023.90
2018-12-24T09:26:25.292Z,1023.94
2018-12-24T09:27:25.303Z,1023.95
2018-12-24T09:28:25.318Z,1023.95
2018-12-24T09:29:25.345Z,1023.99
2018-12-24T09:30:25.344Z,1023.99
2018-12-24T09:31:25.355Z,1023.99
2018-12-24T09:32:25.371Z,1023.99
2018-12-24T09:33:25.378Z,1024.02
2018-12-24T09:34:25.395Z,1024.08
2018-12-24T09:35:25.466Z,1024.12
2018-12-24T09:36:25.441Z,1024.09
2018-12-24T09:37:25.447Z,1024.13
2018-12-24T09:38:25.454Z,1024.14
2018-12-24T09:39:25.459Z,1024.17
2018-12-24T09:40:25.472Z,1024.18
2018-12-24T09:41:25.485Z,1024.15
2018-12-24T09:42:25.518Z,1024.14
2018-12-24T09:43:25.518Z,1024.13
2018-12-24T09:44:25.528Z,1024.16
2018-12-24T09:45:25.543Z,1024.17
2018-12-24T09:46:25.550Z,1024.19
2018-12-24T09:47:25.565Z,1024.23
2018-12-24T09:48:25.574Z,1024.27
2018-12-24T09:49:25.601Z,1024.34
2018-12-24T09:50:25.608Z,1024.36
2018-12-24T09:51:25.624Z,1024.33
2018-12-24T09:52:25.636Z,1024.37
2018-12-24T09:53:25.651Z,1024.39
2018-12-24T09:54:25.656Z,1024.43
2018-12-24T09:55:25.668Z,1024.46
2018-12-24T09:56:25.679Z,1024.44
2018-12-24T09:57:25.706Z,1024.50
2018-12-24T09:58:25.712Z,1024.48
2018-12-24T09:59:25.722Z,1024.47
2018-12-24T10:00:25.742Z,1024.53
2018-12-24T10:01:25.749Z,1024.55
2018-12-24T10:02:25.760Z,1024.54
2018-12-24T10:03:25.878Z,1024.64
2018-12-24T10:04:25.784Z,1024.60
2018-12-24T10:05:25.807Z,1024.60
2018-12-24T10:06:25.815Z,1024.60
2018-12-24T10:07:25.823Z,1024.62
2018-12-24T10:08:25.837Z,1024.66
2018-12-24T10:09:25.865Z,1024.63
2018-12-24T10:10:25.868Z,1024.73
2018-12-24T10:11:25.881Z,1024.70
2018-12-24T10:12:25.892Z,1024.72
2018-12-24T10:13:25.919Z,1024.76
2018-12-24T10:14:25.921Z,1024.80
2018-12-24T10:15:25.933Z,1024.74
2018-12-24T10:16:25.944Z,1024.73
2018-12-24T10:17:25.961Z,1024.75
2018-12-24T10:18:25.972Z,1024.72
2018-12-24T10:19:25.981Z,1024.76
2018-12-24T10:20:25.997Z,1024.73
2018-12-24T10:21:26.009Z,1024.73
2018-12-24T10:22:26.024Z,1024.76
2018-12-24T10:23:26.678Z,1024.70
2018-12-24T10:24:26.048Z,1024.71
2018-12-24T10:25:26.063Z,1024.73
2018-12-24T10:26:26.073Z,1024.69
2018-12-24T10:27:26.089Z,1024.70
2018-12-24T10:28:26.102Z,1024.68
2018-12-24T10:29:26.121Z,1024.63
2018-12-24T10:30:26.125Z,1024.67
2018-12-24T10:31:26.140Z,1024.72
2018-12-24T10:32:26.154Z,1024.66
2018-12-24T10:33:26.180Z,1024.73
2018-12-24T10:34:26.174Z,1024.77
2018-12-24T10:35:26.197Z,1024.75
2018-12-24T10:36:26.211Z,1024.77
2018-12-24T10:37:26.219Z,1024.73
2018-12-24T10:38:26.232Z,1024.71
2018-12-24T10:39:26.240Z,1024.72
2018-12-24T10:40:26.258Z,1024.69
2018-12-24T10:41:26.277Z,1024.72
2018-12-24T10:42:26.284Z,1024.70
2018-12-24T10:43:26.291Z,1024.71
2018-12-24T10:44:26.319Z,1024.69
2018-12-24T10:45:26.323Z,1024.72
2018-12-24T10:46:26.332Z,1024.69
2018-12-24T10:47:26.346Z,1024.74
2018-12-24T10:48:26.362Z,1024.75
2018-12-24T10:49:26.377Z,1024.77
2018-12-24T10:50:26.386Z,1024.77
2018-12-24T10:51:26.411Z,1024.75
2018-12-24T10:52:26.420Z,1024.78
2018-12-24T10:53:26.427Z,1024.79
2018-12-24T10:54:26.495Z,1024.76
2018-12-24T10:55:26.455Z,1024.79
2018-12-24T10:56:26.466Z,1024.83
2018-12-24T10:57:26.487Z,1024.84
2018-12-24T10:58:26.493Z,1024.86
2018-12-24T10:59:26.510Z,1024.85
2018-12-24T11:00:26.516Z,1024.79
2018-12-24T11:01:26.531Z,1024.85
2018-12-24T11:02:26.543Z,1024.81
2018-12-24T11:03:26.557Z,1024.82
2018-12-24T11:04:26.584Z,1024.81
2018-12-24T11:05:26.592Z,1024.83
2018-12-24T11:06:26.601Z,1024.86
2018-12-24T11:07:26.608Z,1024.94
2018-12-24T11:08:26.623Z,1024.88
2018-12-24T11:09:26.638Z,1024.88
2018-12-24T11:10:26.652Z,1024.89
2018-12-24T11:11:26.661Z,1024.91
2018-12-24T11:12:26.675Z,1024.96
2018-12-24T11:13:26.694Z,1024.99
2018-12-24T11:14:26.705Z,1024.94
2018-12-24T11:15:26.718Z,1024.89
2018-12-24T11:16:26.737Z,1024.94
2018-12-24T11:17:26.742Z,1024.91
2018-12-24T11:18:26.755Z,1024.94
2018-12-24T11:19:26.769Z,1024.92
2018-12-24T11:20:26.781Z,1024.92
2018-12-24T11:21:26.795Z,1024.91
2018-12-24T11:22:26.806Z,1024.94
2018-12-24T11:23:26.821Z,1024.87
2018-12-24T11:24:26.832Z,1024.91
2018-12-24T11:25:26.846Z,1024.92
2018-12-24T11:26:26.865Z,1024.95
2018-12-24T11:27:26.876Z,1025.01
2018-12-24T11:28:26.884Z,1025.00
2018-12-24T11:29:26.899Z,1024.95
2018-12-24T11:30:26.912Z,1024.99
2018-12-24T11:31:26.925Z,1025.03
2018-12-24T11:32:26.942Z,1025.00
2018-12-24T11:33:26.950Z,1025.03
2018-12-24T11:34:26.973Z,1025.01
2018-12-24T11:35:26.976Z,1024.98
2018-12-24T11:36:26.988Z,1025.02
2018-12-24T11:37:27.007Z,1025.01
2018-12-24T11:38:27.019Z,1025.01
2018-12-24T11:39:27.026Z,1024.92
2018-12-24T11:40:27.042Z,1025.02
2018-12-24T11:41:27.056Z,1024.97
2018-12-24T11:42:27.068Z,1025.00
2018-12-24T11:43:27.087Z,1024.98
2018-12-24T11:44:27.094Z,1024.93
2018-12-24T11:45:33.762Z,1024.96
2018-12-24T11:46:27.124Z,1024.92
2018-12-24T11:47:27.138Z,1025.00
2018-12-24T11:48:27.146Z,1024.96
2018-12-24T11:49:27.163Z,1025.00
2018-12-24T11:50:27.169Z,1024.98
2018-12-24T11:51:27.183Z,1024.96
2018-12-24T11:52:27.207Z,1025.00
2018-12-24T11:53:27.220Z,1025.03
2018-12-24T11:54:27.224Z,1025.03
2018-12-24T11:55:27.236Z,1025.00
2018-12-24T11:56:27.251Z,1025.01
2018-12-24T11:57:27.275Z,1025.01
2018-12-24T11:58:27.276Z,1025.04
2018-12-24T11:59:27.293Z,1025.07
2018-12-24T12:00:27.308Z,1025.07
2018-12-24T12:01:27.317Z,1025.03
2018-12-24T12:02:27.340Z,1025.05
2018-12-24T12:03:27.348Z,1025.04
2018-12-24T12:04:27.355Z,1025.05
2018-12-24T12:05:27.372Z,1025.06
2018-12-24T12:06:27.385Z,1025.08
2018-12-24T12:07:27.397Z,1025.09
2018-12-24T12:08:27.415Z,1025.11
2018-12-24T12:09:27.433Z,1025.13
2018-12-24T12:10:27.436Z,1025.14
2018-12-24T12:11:27.447Z,1025.16
2018-12-24T12:12:27.467Z,1025.15
2018-12-24T12:13:27.482Z,1025.12
2018-12-24T12:14:27.495Z,1025.17
2018-12-24T12:15:27.501Z,1025.19
2018-12-24T12:16:27.517Z,1025.20
2018-12-24T12:17:27.531Z,1025.22
2018-12-24T12:18:27.546Z,1025.23
2018-12-24T12:19:27.555Z,1025.26
2018-12-24T12:20:27.573Z,1025.18
2018-12-24T12:21:27.581Z,1025.25
2018-12-24T12:22:27.593Z,1025.25
2018-12-24T12:23:27.611Z,1025.29
2018-12-24T12:24:27.629Z,1025.32
2018-12-24T12:25:27.637Z,1025.29
2018-12-24T12:26:27.653Z,1025.25
2018-12-24T12:27:27.663Z,1025.33
2018-12-24T12:28:27.679Z,1025.33
2018-12-24T12:29:27.691Z,1025.34
2018-12-24T12:30:27.701Z,1025.30
2018-12-24T12:31:27.716Z,1025.31
2018-12-24T12:32:27.726Z,1025.33
2018-12-24T12:33:27.743Z,1025.35
2018-12-24T12:34:27.757Z,1025.37
2018-12-24T12:35:27.770Z,1025.39
2018-12-24T12:36:27.784Z,1025.41
2018-12-24T12:37:27.797Z,1025.39
2018-12-24T12:38:29.798Z,1025.46
2018-12-24T12:39:27.818Z,1025.51
2018-12-24T12:40:27.839Z,1025.57
2018-12-24T12:41:27.853Z,1025.57
2018-12-24T12:42:27.861Z,1025.56
2018-12-24T12:43:27.875Z,1025.51
2018-12-24T12:44:27.889Z,1025.56
2018-12-24T12:45:27.918Z,1025.51
2018-12-24T12:46:27.931Z,1025.54
2018-12-24T12:47:27.934Z,1025.58
2018-12-24T12:48:27.941Z,1025.61
2018-12-24T12:49:27.960Z,1025.66
2018-12-24T12:50:27.969Z,1025.57
2018-12-24T12:51:27.979Z,1025.64
2018-12-24T12:52:27.994Z,1025.63
2018-12-24T12:53:28.010Z,1025.58